Midland, Missouri
Current Conditions -  °F | °C
As of 7:55 AM on Wednesday 28 Jan 2015 (Local Time) from KIRK Reporting Station
Haze Haze  
Wind Chill: 19°   Ceiling: Unl
Heat Index: 30°   Visibility: 4mi
Dew Point: 28°   Wind: 16mph
Humidity: 92%   Direction: 130°SE
Pressure: 30.07"   Gusts: NA
Location:  40.2969°N, 92.7524°W
Report Text: KIRK 281355Z AUTO 13014KT 4SM BR CLR M01/M02 A3007 RMK AO2 SLP195 T10111022
Loading
Personal Weather Stations






























Interactive Weather Map New forecast layout! Learn more

10-Day Weather Forecast

Advertisements
Track Severe Weather on mobile